| time (UTC) | temp C | wind direction | speed KPH | gust KPH | rain 1hr cm | rain 24hr cm | rain mn cm | humidity % | barometer mb |
| 20260507185337 | 21 | 279 | 9.7 | 16.1 | 0.00 | 0.00 | 0.00 | 42 | 1016.1 |
| 20260507184319 | 20 | 226 | 8.0 | 9.7 | 0.00 | 0.00 | 0.00 | 40 | 1016.2 |
| 20260507183348 | 20 | 68 | 12.9 | 16.1 | 0.00 | 0.00 | 0.00 | 43 | 1016.3 |
| 20260507182307 | 20 | 270 | 9.7 | 12.9 | 0.00 | 0.00 | 0.00 | 42 | 1016.6 |
| 20260507181303 | 20 | 264 | 12.9 | 17.7 | 0.00 | 0.00 | 0.00 | 42 | 1016.6 |
| 20260507180301 | 20 | 242 | 6.4 | 8.0 | 0.00 | 0.00 | 0.00 | 44 | 1017.0 |
| 20260507175245 | 20 | 221 | 8.0 | 9.7 | 0.00 | 0.00 | 0.00 | 47 | 1016.8 |
| 20260507174243 | 18 | 254 | 17.7 | 29.0 | 0.00 | 0.00 | 0.00 | 48 | 1017.3 |
| 20260507173323 | 18 | 176 | 11.3 | 14.5 | 0.00 | 0.00 | 0.00 | 48 | 1017.3 |
| 20260507172322 | 18 | 150 | 9.7 | 12.9 | 0.00 | 0.00 | 0.00 | 52 | 1017.8 |
| 20260507171318 | 17 | 239 | 9.7 | 12.9 | 0.00 | 0.00 | 0.00 | 54 | 1017.9 |
| 20260507170317 | 17 | 155 | 11.3 | 12.9 | 0.00 | 0.00 | 0.00 | 55 | 1017.8 |
| 20260507165318 | 17 | 247 | 6.4 | 8.0 | 0.00 | 0.00 | 0.00 | 55 | 1018.3 |
| 20260507164309 | 17 | 221 | 6.4 | 8.0 | 0.00 | 0.00 | 0.00 | 60 | 1018.6 |
| 20260507163311 | 17 | 155 | 4.8 | 8.0 | 0.00 | 0.00 | 0.00 | 58 | 1018.7 |
| 20260507162306 | 16 | 231 | 11.3 | 12.9 | 0.00 | 0.00 | 0.00 | 60 | 1018.9 |
| 20260507161304 | 16 | 196 | 4.8 | 8.0 | 0.00 | 0.00 | 0.00 | 62 | 1018.5 |
| 20260507160255 | 16 | 226 | 4.8 | 8.0 | 0.00 | 0.00 | 0.00 | 61 | 1018.9 |
| 20260507155257 | 16 | 240 | 11.3 | 16.1 | 0.00 | 0.00 | 0.00 | 62 | 1018.8 |
| 20260507154250 | 15 | 196 | 8.0 | 11.3 | 0.00 | 0.00 | 0.00 | 64 | 1018.9 |
| 20260507153252 | 15 | 255 | 9.7 | 12.9 | 0.00 | 0.00 | 0.00 | 63 | 1018.9 |
| 20260507152254 | 15 | 281 | 8.0 | 9.7 | 0.00 | 0.00 | 0.00 | 65 | 1019.0 |
| 20260507151244 | 14 | 254 | 12.9 | 14.5 | 0.00 | 0.00 | 0.00 | 66 | 1019.5 |
| 20260507150246 | 13 | 207 | 4.8 | 8.0 | 0.00 | 0.00 | 0.00 | 68 | 1019.6 |
| 20260507145239 | 13 | 201 | 4.8 | 4.8 | 0.00 | 0.00 | 0.00 | 68 | 1019.7 |
| 20260507144237 | 13 | 201 | 11.3 | 14.5 | 0.00 | 0.00 | 0.00 | 69 | 1019.7 |
| 20260507143342 | 12 | 297 | 11.3 | 16.1 | 0.00 | 0.00 | 0.00 | 71 | 1019.6 |
| 20260507142324 | 12 | 240 | 12.9 | 17.7 | 0.00 | 0.00 | 0.00 | 73 | 1019.5 |
| 20260507141319 | 12 | 243 | 8.0 | 11.3 | 0.00 | 0.00 | 0.00 | 75 | 1019.7 |
| 20260507140316 | 11 | 254 | 9.7 | 11.3 | 0.00 | 0.00 | 0.00 | 76 | 1019.7 |
| 20260507135317 | 11 | 237 | 6.4 | 8.0 | 0.00 | 0.00 | 0.00 | 79 | 1020.1 |
| 20260507134309 | 10 | 257 | 8.0 | 11.3 | 0.00 | 0.00 | 0.00 | 81 | 1020.3 |
| 20260507133305 | 10 | 237 | 6.4 | 8.0 | 0.00 | 0.00 | 0.00 | 83 | 1019.9 |
| 20260507132307 | 10 | 270 | 8.0 | 9.7 | 0.00 | 0.00 | 0.00 | 84 | 1020.1 |
| 20260507131257 | 9 | 256 | 1.6 | 3.2 | 0.00 | 0.00 | 0.00 | 86 | 1019.9 |
| 20260507130239 | 8 | 245 | 8.0 | 9.7 | 0.00 | 0.00 | 0.00 | 87 | 1019.9 |
| 20260507125257 | 8 | 206 | 3.2 | 3.2 | 0.00 | 0.00 | 0.00 | 88 | 1020.1 |
| 20260507124239 | 7 | 233 | 4.8 | 4.8 | 0.00 | 0.00 | 0.00 | 89 | 1020.2 |
| 20260507123241 | 7 | 233 | 4.8 | 8.0 | 0.00 | 0.00 | 0.00 | 89 | 1020.2 |
| 20260507122231 | 6 | 234 | 3.2 | 4.8 | 0.00 | 0.00 | 0.00 | 90 | 1020.2 |
| 20260507121332 | 6 | 231 | 4.8 | 8.0 | 0.00 | 0.00 | 0.00 | 91 | 1020.1 |
| 20260507120323 | 6 | 201 | 3.2 | 3.2 | 0.00 | 0.00 | 0.00 | 91 | 1020.2 |
| 20260507115322 | 6 | 0.0 | 0.0 | 0.00 | 0.00 | 0.00 | 91 | 1019.9 | |
| 20260507114344 | 6 | 0.0 | 0.0 | 0.00 | 0.00 | 0.00 | 91 | 1020.1 | |
| 20260507113404 | 6 | 0.0 | 0.0 | 0.00 | 0.00 | 0.00 | 91 | 1020.2 | |
| 20260507112318 | 6 | 0.0 | 0.0 | 0.00 | 0.00 | 0.00 | 90 | 1020.2 | |
| 20260507111316 | 6 | 0.0 | 0.0 | 0.00 | 0.00 | 0.00 | 90 | 1020.2 | |
| 20260507110315 | 6 | 0.0 | 0.0 | 0.00 | 0.00 | 0.00 | 90 | 1020.2 | |
| 20260507105309 | 6 | 0.0 | 0.0 | 0.00 | 0.00 | 0.00 | 90 | 1019.9 | |
| 20260507104311 | 6 | 0.0 | 0.0 | 0.00 | 0.00 | 0.00 | 89 | 1019.7 | |
| 20260507103309 | 6 | 0.0 | 0.0 | 0.00 | 0.00 | 0.00 | 89 | 1019.8 | |
| 20260507102331 | 6 | 194 | 1.6 | 1.6 | 0.00 | 0.00 | 0.00 | 89 | 1019.8 |
| 20260507101313 | 6 | 0.0 | 0.0 | 0.00 | 0.00 | 0.00 | 88 | 1019.9 | |
| 20260507100255 | 6 | 0.0 | 0.0 | 0.00 | 0.00 | 0.00 | 87 | 1019.9 | |
| 20260507095252 | 7 | 0.0 | 0.0 | 0.00 | 0.00 | 0.00 | 87 | 1020.2 | |
| 20260507094253 | 7 | 0.0 | 0.0 | 0.00 | 0.00 | 0.00 | 86 | 1020.2 | |
| 20260507093152 | 7 | 195 | 0.0 | 1.6 | 0.00 | 0.00 | 0.00 | 86 | 1020.4 |
| 20260507092214 | 7 | 258 | 3.2 | 4.8 | 0.00 | 0.00 | 0.00 | 85 | 1020.3 |
| 20260507091244 | 8 | 271 | 1.6 | 1.6 | 0.00 | 0.00 | 0.00 | 85 | 1020.7 |
| 20260507090230 | 8 | 0.0 | 0.0 | 0.00 | 0.03 | 0.00 | 84 | 1020.6 | |
| 20260507085227 | 8 | 0.0 | 0.0 | 0.00 | 0.03 | 0.00 | 84 | 1020.6 | |
| 20260507084236 | 8 | 0.0 | 0.0 | 0.00 | 0.08 | 0.00 | 84 | 1020.6 | |
| 20260507083218 | 8 | 0.0 | 0.0 | 0.00 | 0.08 | 0.00 | 85 | 1020.6 | |
| 20260507082216 | 8 | 0.0 | 0.0 | 0.00 | 0.08 | 0.00 | 86 | 1020.8 | |
| 20260507081215 | 8 | 0.0 | 0.0 | 0.00 | 0.08 | 0.00 | 86 | 1020.8 | |
| 20260507080158 | 7 | 0.0 | 0.0 | 0.00 | 0.08 | 0.00 | 87 | 1020.9 | |
| 20260507075152 | 7 | 0.0 | 0.0 | 0.00 | 0.08 | 0.00 | 88 | 1020.8 | |
| 20260507074150 | 7 | 0.0 | 0.0 | 0.00 | 0.08 | 0.00 | 88 | 1020.8 | |
| 20260507073149 | 7 | 0.0 | 0.0 | 0.00 | 0.08 | 0.00 | 87 | 1021.1 | |
| 20260507072230 | 7 | 0.0 | 0.0 | 0.00 | 0.08 | 0.00 | 86 | 1020.9 | |
| 20260507071152 | 7 | 0.0 | 0.0 | 0.00 | 0.08 | 0.00 | 85 | 1021.3 | |
| 20260507070152 | 8 | 0.0 | 0.0 | 0.00 | 0.10 | 0.00 | 85 | 1021.0 | |
| 20260507065151 | 8 | 0.0 | 0.0 | 0.00 | 0.13 | 0.00 | 85 | 1021.1 | |
| 20260507064152 | 8 | 0.0 | 0.0 | 0.00 | 0.15 | 0.00 | 86 | 1021.4 | |
| 20260507063150 | 7 | 0.0 | 0.0 | 0.00 | 0.15 | 0.00 | 86 | 1021.3 | |
| 20260507062152 | 7 | 0.0 | 0.0 | 0.00 | 0.18 | 0.00 | 86 | 1021.4 | |
| 20260507061138 | 8 | 0.0 | 0.0 | 0.00 | 0.20 | 0.00 | 86 | 1021.3 | |
| 20260507060033 | 8 | 0.0 | 0.0 | 0.00 | 0.23 | 0.00 | 86 | 1021.2 | |
| 20260507055151 | 8 | 0.0 | 0.0 | 0.00 | 0.25 | 0.00 | 87 | 1021.2 | |
| 20260507054149 | 8 | 0.0 | 0.0 | 0.00 | 0.25 | 0.00 | 88 | 1021.2 | |
| 20260507053122 | 8 | 0.0 | 0.0 | 0.00 | 0.28 | 0.00 | 89 | 1021.5 | |
| 20260507052123 | 7 | 0.0 | 0.0 | 0.00 | 0.28 | 0.00 | 88 | 1021.1 | |
| 20260507051110 | 7 | 0.0 | 0.0 | 0.00 | 0.28 | 0.00 | 88 | 1021.1 | |
| 20260507050132 | 7 | 0.0 | 0.0 | 0.00 | 0.28 | 0.28 | 87 | 1021.5 | |
| 20260507045143 | 7 | 0.0 | 0.0 | 0.00 | 0.28 | 0.28 | 87 | 1021.3 | |
| 20260507044211 | 7 | 0.0 | 0.0 | 0.00 | 0.28 | 0.28 | 87 | 1021.3 | |
| 20260507043110 | 7 | 0.0 | 0.0 | 0.00 | 0.28 | 0.28 | 87 | 1021.0 | |
| 20260507042111 | 7 | 0.0 | 0.0 | 0.00 | 0.28 | 0.28 | 86 | 1021.1 | |
| 20260507041104 | 7 | 0.0 | 0.0 | 0.00 | 0.28 | 0.28 | 85 | 1021.4 | |
| 20260507035105 | 7 | 0.0 | 0.0 | 0.00 | 0.28 | 0.28 | 84 | 1021.4 | |
| 20260507034103 | 7 | 0.0 | 0.0 | 0.00 | 0.28 | 0.28 | 83 | 1021.3 | |
| 20260507033050 | 7 | 0.0 | 0.0 | 0.00 | 0.28 | 0.28 | 81 | 1021.4 | |
| 20260507032051 | 8 | 0.0 | 0.0 | 0.00 | 0.28 | 0.28 | 80 | 1021.1 | |
| 20260507031113 | 8 | 0.0 | 0.0 | 0.00 | 0.28 | 0.28 | 80 | 1021.1 | |
| 20260507030042 | 8 | 0.0 | 0.0 | 0.00 | 0.28 | 0.28 | 78 | 1021.2 | |
| 20260507025057 | 9 | 0.0 | 0.0 | 0.00 | 0.28 | 0.28 | 75 | 1021.2 | |
| 20260507023931 | 10 | 0.0 | 0.0 | 0.00 | 0.28 | 0.28 | 73 | 1021.0 | |
| 20260507023021 | 10 | 0.0 | 0.0 | 0.00 | 0.28 | 0.28 | 72 | 1020.9 | |
| 20260507022020 | 11 | 0.0 | 0.0 | 0.00 | 0.28 | 0.28 | 71 | 1020.8 | |
| 20260507021016 | 11 | 0.0 | 0.0 | 0.00 | 0.28 | 0.28 | 69 | 1020.7 | |
| 20260507020038 | 11 | 0.0 | 0.0 | 0.00 | 0.30 | 0.28 | 69 | 1020.5 | |
| 20260507015009 | 11 | 0.0 | 0.0 | 0.00 | 0.30 | 0.28 | 64 | 1020.5 | |
| 20260507014011 | 12 | 0.0 | 0.0 | 0.00 | 0.30 | 0.28 | 63 | 1020.4 | |
| 20260507013003 | 12 | 0.0 | 0.0 | 0.00 | 0.33 | 0.28 | 59 | 1020.6 | |
| 20260507012004 | 12 | 0.0 | 0.0 | 0.00 | 0.33 | 0.28 | 57 | 1020.3 | |
| 20260507010958 | 13 | 0.0 | 0.0 | 0.00 | 0.33 | 0.28 | 55 | 1020.3 | |
| 20260507005945 | 13 | 0.0 | 0.0 | 0.00 | 0.33 | 0.28 | 55 | 1020.1 | |
| 20260507004943 | 13 | 176 | 0.0 | 1.6 | 0.00 | 0.33 | 0.28 | 54 | 1020.2 |
| 20260507003946 | 13 | 0.0 | 0.0 | 0.00 | 0.33 | 0.28 | 54 | 1019.9 | |
| 20260507002943 | 13 | 0.0 | 0.0 | 0.00 | 0.33 | 0.28 | 54 | 1019.8 | |
| 20260507001945 | 13 | 0.0 | 0.0 | 0.00 | 0.33 | 0.28 | 53 | 1019.8 | |
| 20260507000942 | 13 | 0.0 | 0.0 | 0.00 | 0.33 | 0.28 | 54 | 1019.9 | |
| 20260506235959 | 14 | 0.0 | 0.0 | 0.00 | 0.33 | 0.28 | 54 | 1019.8 | |
| 20260506234936 | 14 | 0.0 | 0.0 | 0.00 | 0.33 | 0.28 | 53 | 1019.8 | |
| 20260506233938 | 14 | 0.0 | 0.0 | 0.00 | 0.33 | 0.28 | 52 | 1019.7 | |
| 20260506232935 | 15 | 0.0 | 0.0 | 0.00 | 0.33 | 0.28 | 51 | 1019.8 | |
| 20260506232047 | 15 | 180 | 1.6 | 1.6 | 0.00 | 0.33 | 0.28 | 51 | 1019.7 |
| 20260506231022 | 15 | 25 | 1.6 | 3.2 | 0.00 | 0.33 | 0.28 | 50 | 1019.7 |
| 20260506230044 | 15 | 0.0 | 0.0 | 0.00 | 0.33 | 0.28 | 51 | 1019.7 | |
| 20260506225026 | 15 | 201 | 1.6 | 3.2 | 0.00 | 0.33 | 0.28 | 51 | 1019.8 |
| 20260506224021 | 15 | 0.0 | 0.0 | 0.00 | 0.33 | 0.28 | 54 | 1019.5 | |
| 20260506223009 | 15 | 339 | 3.2 | 4.8 | 0.00 | 0.33 | 0.28 | 55 | 1019.6 |
| 20260506222011 | 15 | 147 | 1.6 | 1.6 | 0.00 | 0.33 | 0.28 | 54 | 1019.6 |
| 20260506221009 | 14 | 122 | 0.0 | 1.6 | 0.00 | 0.33 | 0.28 | 54 | 1019.5 |
| 20260506220004 | 14 | 189 | 1.6 | 3.2 | 0.00 | 0.33 | 0.28 | 54 | 1019.7 |
| 20260506214945 | 15 | 299 | 1.6 | 3.2 | 0.00 | 0.33 | 0.28 | 55 | 1019.7 |
| 20260506213958 | 15 | 0.0 | 0.0 | 0.00 | 0.33 | 0.28 | 53 | 1019.7 | |
| 20260506212936 | 15 | 28 | 1.6 | 3.2 | 0.00 | 0.33 | 0.28 | 52 | 1019.8 |
| 20260506211831 | 15 | 204 | 1.6 | 1.6 | 0.00 | 0.33 | 0.28 | 51 | 1019.9 |
| 20260506210829 | 16 | 201 | 3.2 | 4.8 | 0.00 | 0.33 | 0.28 | 49 | 1020.1 |
| 20260506205932 | 15 | 154 | 0.0 | 1.6 | 0.00 | 0.33 | 0.28 | 53 | 1020.2 |
| 20260506204922 | 15 | 60 | 3.2 | 3.2 | 0.00 | 0.33 | 0.28 | 51 | 1020.3 |
| 20260506203923 | 16 | 95 | 0.0 | 1.6 | 0.00 | 0.33 | 0.28 | 50 | 1020.5 |
| 20260506202921 | 16 | 200 | 1.6 | 3.2 | 0.00 | 0.33 | 0.28 | 48 | 1020.6 |
| 20260506201915 | 16 | 0.0 | 0.0 | 0.00 | 0.33 | 0.28 | 48 | 1020.5 | |
| 20260506200923 | 15 | 102 | 3.2 | 3.2 | 0.00 | 0.33 | 0.28 | 51 | 1021.0 |
| 20260506195904 | 15 | 148 | 6.4 | 8.0 | 0.00 | 0.33 | 0.28 | 51 | 1021.0 |
| 20260506194902 | 15 | 125 | 3.2 | 3.2 | 0.00 | 0.33 | 0.28 | 51 | 1021.3 |
| 20260506193900 | 16 | 114 | 3.2 | 4.8 | 0.00 | 0.33 | 0.28 | 52 | 1021.2 |
| 20260506192911 | 15 | 276 | 3.2 | 3.2 | 0.00 | 0.33 | 0.28 | 54 | 1021.4 |
| 20260506191849 | 15 | 91 | 6.4 | 8.0 | 0.00 | 0.33 | 0.28 | 53 | 1021.1 |
| 20260506190911 | 15 | 127 | 1.6 | 1.6 | 0.00 | 0.33 | 0.28 | 55 | 1021.2 |